Time;durP1;ratioP1;P1;durP2;ratioP2;P2;SDS_P1;SDS_P2;PMS_P1;PMS_P2;Temp;Humidity;BMP_temperature;BMP_pressure;BME280_temperature;BME280_humidity;BME280_pressure;Samples;Min_cycle;Max_cycle;Signal;HPM_P1;HPM_P2
2023/12/11 00:01:07;;;;;;;3.67;2.10;;;1.70;99.90;;;;;;5046876;28;21111;-83
2023/12/11 00:03:34;;;;;;;5.70;1.57;;;1.80;99.90;;;;;;5046881;28;20477;-82
2023/12/11 00:06:03;;;;;;;3.80;2.17;;;1.70;99.90;;;;;;5049623;28;20472;-82
2023/12/11 00:08:30;;;;;;;5.50;2.10;;;1.70;99.90;;;;;;5051795;28;20487;-83
2023/12/11 00:10:57;;;;;;;3.43;1.50;;;1.70;99.90;;;;;;5051135;28;21013;-82
2023/12/11 00:13:25;;;;;;;4.20;2.97;;;1.70;99.90;;;;;;5054391;28;20478;-82
2023/12/11 00:15:52;;;;;;;3.70;2.03;;;1.70;99.90;;;;;;5043441;28;21046;-82
2023/12/11 00:18:19;;;;;;;3.33;2.47;;;1.60;99.90;;;;;;5046691;28;20794;-82
2023/12/11 00:20:46;;;;;;;6.50;1.50;;;1.60;99.90;;;;;;5052095;28;20785;-82
2023/12/11 00:23:14;;;;;;;2.50;1.73;;;1.50;99.90;;;;;;5046705;28;20469;-82
2023/12/11 00:25:46;;;;;;;1.93;1.70;;;1.70;99.90;;;;;;5043390;28;20466;-82
2023/12/11 00:28:14;;;;;;;4.13;2.00;;;1.70;99.90;;;;;;5045877;28;21191;-82
2023/12/11 00:30:41;;;;;;;3.60;2.10;;;1.70;99.90;;;;;;5056846;28;20485;-82
2023/12/11 00:33:08;;;;;;;4.77;1.90;;;1.70;99.90;;;;;;5083964;28;20447;-82
2023/12/11 00:35:35;;;;;;;2.47;1.47;;;1.80;99.90;;;;;;5079829;28;20467;-82
2023/12/11 00:38:02;;;;;;;3.17;1.57;;;1.90;99.90;;;;;;5084338;28;20786;-83
2023/12/11 00:40:31;;;;;;;3.83;1.80;;;2.00;99.90;;;;;;5073618;28;20483;-82
2023/12/11 00:42:58;;;;;;;3.80;1.27;;;2.00;99.90;;;;;;5084578;28;20435;-82
2023/12/11 00:45:25;;;;;;;2.53;1.30;;;2.00;99.90;;;;;;5073211;28;20473;-82
2023/12/11 00:47:52;;;;;;;3.70;1.83;;;2.10;99.90;;;;;;5084542;28;20490;-82
2023/12/11 00:50:19;;;;;;;3.60;1.60;;;2.10;99.90;;;;;;5076805;28;20467;-82
2023/12/11 00:52:46;;;;;;;4.57;1.97;;;2.20;99.90;;;;;;5042726;28;20558;-82
2023/12/11 00:55:13;;;;;;;6.00;1.43;;;2.30;99.90;;;;;;5045215;28;20585;-83
2023/12/11 00:57:42;;;;;;;2.33;1.10;;;2.30;99.90;;;;;;5043952;28;20470;-83
2023/12/11 01:00:10;;;;;;;5.10;1.90;;;2.30;99.90;;;;;;5052832;28;20468;-82
2023/12/11 01:02:38;;;;;;;5.37;1.87;;;2.30;99.90;;;;;;5079665;28;20863;-82
2023/12/11 01:05:05;;;;;;;3.23;1.67;;;2.20;99.90;;;;;;5084024;28;20542;-83
2023/12/11 01:07:33;;;;;;;11.07;1.90;;;2.20;99.90;;;;;;5085579;28;20482;-83
2023/12/11 01:10:01;;;;;;;7.10;2.20;;;2.20;99.90;;;;;;5073948;28;20955;-83
2023/12/11 01:12:28;;;;;;;3.37;3.07;;;2.10;99.90;;;;;;5079258;28;20561;-82
2023/12/11 01:14:56;;;;;;;3.30;1.83;;;2.10;99.90;;;;;;5084387;28;20728;-82
2023/12/11 01:17:23;;;;;;;7.17;2.00;;;2.10;99.90;;;;;;5084205;28;20478;-83
2023/12/11 01:19:50;;;;;;;4.97;1.83;;;2.10;99.90;;;;;;5074968;28;21209;-83
2023/12/11 01:22:17;;;;;;;5.93;2.07;;;2.00;99.90;;;;;;5081961;28;20949;-83
2023/12/11 01:24:44;;;;;;;6.83;2.07;;;2.00;99.90;;;;;;5077187;28;20475;-82
2023/12/11 01:27:11;;;;;;;2.77;2.27;;;2.00;99.90;;;;;;5074155;28;20462;-82
2023/12/11 01:29:39;;;;;;;4.63;2.13;;;2.00;99.90;;;;;;5073231;28;20480;-82
2023/12/11 01:32:07;;;;;;;4.00;1.03;;;1.90;99.90;;;;;;5069291;28;20455;-82
2023/12/11 01:34:34;;;;;;;8.80;2.20;;;2.00;99.90;;;;;;5076843;28;20467;-82
2023/12/11 01:37:02;;;;;;;4.77;2.57;;;2.10;99.90;;;;;;5077956;28;20466;-82
2023/12/11 01:39:29;;;;;;;4.47;1.70;;;2.20;99.90;;;;;;5067477;28;20464;-82
2023/12/11 01:41:56;;;;;;;5.67;1.77;;;2.30;99.90;;;;;;5069760;28;21089;-82
2023/12/11 01:44:23;;;;;;;4.70;2.27;;;2.20;99.90;;;;;;5075509;28;20499;-82
2023/12/11 01:46:50;;;;;;;5.23;2.77;;;2.20;99.90;;;;;;5081039;28;20462;-82
2023/12/11 01:49:19;;;;;;;2.47;2.20;;;2.20;99.90;;;;;;5082256;28;20486;-82
2023/12/11 01:51:47;;;;;;;5.07;2.17;;;2.10;99.90;;;;;;5073183;28;20530;-82
2023/12/11 01:54:18;;;;;;;1.57;1.40;;;2.10;99.90;;;;;;5083555;28;20454;-82
2023/12/11 01:56:45;;;;;;;5.43;2.00;;;2.10;99.90;;;;;;5073969;28;20666;-81
2023/12/11 01:59:13;;;;;;;4.57;2.30;;;2.10;99.90;;;;;;5079495;28;20459;-82
2023/12/11 02:01:41;;;;;;;5.00;2.50;;;1.90;99.90;;;;;;5081821;28;20550;-82
2023/12/11 02:04:08;;;;;;;15.10;3.17;;;2.00;99.90;;;;;;5069635;28;20480;-82
2023/12/11 02:06:37;;;;;;;2.30;2.10;;;2.00;99.90;;;;;;5074487;28;20468;-82
2023/12/11 02:09:05;;;;;;;3.57;2.03;;;2.00;99.90;;;;;;5074265;28;20479;-82
2023/12/11 02:11:32;;;;;;;4.77;2.20;;;2.00;99.90;;;;;;5081860;28;21136;-82
2023/12/11 02:13:59;;;;;;;6.80;1.63;;;2.10;99.90;;;;;;5066987;28;20471;-82
2023/12/11 02:16:26;;;;;;;2.60;1.73;;;2.10;99.90;;;;;;5070923;28;20508;-81
2023/12/11 02:18:53;;;;;;;6.57;1.77;;;2.10;99.90;;;;;;5075483;28;20533;-81
2023/12/11 02:21:20;;;;;;;4.20;1.80;;;2.00;99.90;;;;;;5073100;28;20468;-82
2023/12/11 02:23:57;;;;;;;4.20;1.63;;;2.10;99.90;;;;;;5066069;28;20666;-82
2023/12/11 02:26:26;;;;;;;2.93;1.30;;;2.20;99.90;;;;;;5077085;28;20463;-82
2023/12/11 02:28:53;;;;;;;2.77;1.67;;;2.30;99.90;;;;;;5080983;28;20577;-82
2023/12/11 02:31:20;;;;;;;8.57;1.90;;;2.30;99.90;;;;;;5076168;28;20465;-82
2023/12/11 02:33:47;;;;;;;6.87;1.37;;;2.40;99.90;;;;;;5074418;28;20458;-81
2023/12/11 02:36:14;;;;;;;6.40;2.03;;;2.40;99.90;;;;;;5083021;28;20463;-81
2023/12/11 02:38:41;;;;;;;1.73;1.53;;;2.50;99.90;;;;;;5064989;28;20452;-81
2023/12/11 02:41:09;;;;;;;2.53;0.70;;;2.60;99.90;;;;;;5072686;28;20463;-81
2023/12/11 02:43:37;;;;;;;1.00;1.00;;;2.70;99.90;;;;;;5070488;28;20455;-81
2023/12/11 02:46:04;;;;;;;6.30;1.17;;;2.70;99.90;;;;;;5065101;28;20460;-81
2023/12/11 02:48:32;;;;;;;1.97;1.00;;;2.60;99.90;;;;;;5081066;28;20498;-81
2023/12/11 02:50:59;;;;;;;2.27;1.37;;;2.60;99.90;;;;;;5080686;28;20462;-81
2023/12/11 02:53:26;;;;;;;2.97;1.40;;;2.60;99.90;;;;;;5081736;28;20454;-81
2023/12/11 02:55:53;;;;;;;1.60;1.23;;;2.70;99.90;;;;;;5068457;28;20482;-81
2023/12/11 02:58:20;;;;;;;1.10;1.00;;;2.60;99.90;;;;;;5077784;28;20436;-81
2023/12/11 03:00:49;;;;;;;2.93;1.53;;;2.60;99.90;;;;;;5079898;28;20451;-81
2023/12/11 03:03:16;;;;;;;2.70;1.37;;;2.70;99.90;;;;;;5068746;28;20471;-81
2023/12/11 03:05:43;;;;;;;4.30;1.50;;;2.70;99.90;;;;;;5073595;28;20444;-81
2023/12/11 03:08:10;;;;;;;4.10;2.37;;;2.70;99.90;;;;;;5076593;28;20486;-81
2023/12/11 03:10:37;;;;;;;3.80;1.53;;;2.70;99.90;;;;;;5080196;28;20471;-81
2023/12/11 03:13:04;;;;;;;6.70;1.50;;;2.60;99.90;;;;;;5073193;28;20458;-80
2023/12/11 03:15:31;;;;;;;3.13;1.63;;;2.50;99.90;;;;;;5078765;28;20458;-81
2023/12/11 03:18:00;;;;;;;3.77;1.70;;;2.50;99.90;;;;;;5074213;28;20436;-81
2023/12/11 03:20:27;;;;;;;5.70;2.20;;;2.50;99.90;;;;;;5071136;28;20462;-81
2023/12/11 03:22:54;;;;;;;4.33;2.13;;;2.50;99.90;;;;;;5064342;28;20448;-81
2023/12/11 03:25:22;;;;;;;10.40;1.63;;;2.50;99.90;;;;;;5067736;28;20465;-81
2023/12/11 03:27:49;;;;;;;2.70;1.53;;;2.40;99.90;;;;;;5073518;28;20555;-81
2023/12/11 03:30:16;;;;;;;1.83;1.70;;;2.50;99.90;;;;;;5079835;28;20487;-81
2023/12/11 03:32:44;;;;;;;1.97;1.60;;;2.50;99.90;;;;;;5073998;28;20462;-81
2023/12/11 03:35:12;;;;;;;2.37;1.53;;;2.50;99.90;;;;;;5075724;28;20740;-81
2023/12/11 03:37:40;;;;;;;1.50;1.40;;;2.60;99.90;;;;;;5079912;28;20463;-81
2023/12/11 03:40:08;;;;;;;5.53;2.40;;;2.60;99.90;;;;;;5084394;28;20435;-80
2023/12/11 03:42:35;;;;;;;3.03;1.47;;;2.70;99.90;;;;;;5073752;28;20463;-80
2023/12/11 03:45:02;;;;;;;3.13;1.10;;;2.70;99.90;;;;;;5074307;28;20485;-81
2023/12/11 03:47:29;;;;;;;6.57;3.13;;;2.60;99.90;;;;;;5075896;28;20472;-81
2023/12/11 03:49:56;;;;;;;8.77;2.13;;;2.70;99.90;;;;;;5065057;28;20491;-81
2023/12/11 03:52:25;;;;;;;4.33;2.13;;;2.60;99.90;;;;;;5079098;28;20465;-81
2023/12/11 03:54:52;;;;;;;3.53;1.67;;;2.70;99.90;;;;;;5079351;28;20455;-81
2023/12/11 03:57:19;;;;;;;1.33;1.17;;;2.60;99.90;;;;;;5071909;28;20471;-81
2023/12/11 03:59:46;;;;;;;1.83;1.70;;;2.50;99.90;;;;;;5068845;28;20461;-80
2023/12/11 04:02:13;;;;;;;6.33;2.17;;;2.50;99.90;;;;;;5083302;28;20463;-81
2023/12/11 04:04:40;;;;;;;1.80;1.70;;;2.40;99.90;;;;;;5078741;28;20467;-81
2023/12/11 04:07:08;;;;;;;2.00;1.30;;;2.40;99.90;;;;;;5072157;28;20490;-81
2023/12/11 04:09:36;;;;;;;2.80;2.60;;;2.40;99.90;;;;;;5075399;28;20548;-81
2023/12/11 04:12:04;;;;;;;1.20;1.07;;;2.40;99.90;;;;;;5070656;28;20470;-80
2023/12/11 04:14:31;;;;;;;1.60;1.43;;;2.50;99.90;;;;;;5069257;28;20810;-80
2023/12/11 04:16:58;;;;;;;0.90;0.77;;;2.50;99.90;;;;;;5076212;28;20815;-81
2023/12/11 04:19:25;;;;;;;4.83;1.33;;;2.60;99.90;;;;;;5082095;28;20789;-80
2023/12/11 04:21:52;;;;;;;6.77;1.87;;;2.60;99.90;;;;;;5085520;28;20777;-81
2023/12/11 04:24:19;;;;;;;2.70;1.13;;;2.60;99.90;;;;;;5070428;28;20818;-80
2023/12/11 04:26:48;;;;;;;1.80;1.47;;;2.70;99.90;;;;;;5079672;28;20882;-81
2023/12/11 04:29:15;;;;;;;3.57;1.63;;;2.60;99.90;;;;;;5081600;28;20491;-82
2023/12/11 04:31:42;;;;;;;3.40;1.57;;;2.60;99.90;;;;;;5076687;28;20451;-84
2023/12/11 04:34:09;;;;;;;2.73;2.47;;;2.60;99.90;;;;;;5078188;28;20463;-85
2023/12/11 04:36:36;;;;;;;3.00;2.60;;;2.50;99.90;;;;;;5067192;28;20471;-85
2023/12/11 04:39:04;;;;;;;4.00;2.77;;;2.40;99.90;;;;;;5070883;28;20608;-82
2023/12/11 04:41:31;;;;;;;6.70;3.87;;;2.50;99.90;;;;;;5080057;28;20443;-82
2023/12/11 04:43:59;;;;;;;4.90;2.70;;;2.50;99.90;;;;;;5069698;28;20467;-82
2023/12/11 04:46:26;;;;;;;3.30;2.10;;;2.40;99.90;;;;;;5066049;28;20459;-82
2023/12/11 04:48:53;;;;;;;3.63;1.70;;;2.40;99.90;;;;;;5083552;28;20489;-82
2023/12/11 04:51:20;;;;;;;4.20;1.10;;;2.50;99.90;;;;;;5068986;28;20477;-81
2023/12/11 04:53:48;;;;;;;0.70;0.70;;;2.60;99.90;;;;;;5073962;28;20447;-82
2023/12/11 04:56:15;;;;;;;0.80;0.73;;;2.80;99.90;;;;;;5068579;28;20487;-81
2023/12/11 04:58:43;;;;;;;0.67;0.67;;;2.90;99.90;;;;;;5077010;28;20464;-82
2023/12/11 05:01:11;;;;;;;4.50;1.30;;;2.90;99.90;;;;;;5084260;28;20453;-81
2023/12/11 05:03:38;;;;;;;1.67;1.30;;;3.00;99.90;;;;;;5066144;28;20569;-81
2023/12/11 05:06:06;;;;;;;2.40;1.30;;;3.00;99.90;;;;;;5072350;28;20478;-81
2023/12/11 05:08:33;;;;;;;3.27;1.40;;;3.00;99.90;;;;;;5079338;28;20490;-81
2023/12/11 05:11:00;;;;;;;3.30;2.00;;;3.00;99.90;;;;;;5076679;28;20463;-81
2023/12/11 05:13:27;;;;;;;2.20;1.70;;;3.00;99.90;;;;;;5080748;28;20474;-81
2023/12/11 05:15:55;;;;;;;5.60;3.03;;;2.90;99.90;;;;;;5066114;28;20468;-81
2023/12/11 05:18:23;;;;;;;47.27;15.27;;;2.80;99.90;;;;;;5070865;28;20482;-81
2023/12/11 05:20:50;;;;;;;108.67;30.17;;;2.70;99.90;;;;;;5071010;28;20478;-81
2023/12/11 05:23:17;;;;;;;115.90;31.23;;;2.60;99.90;;;;;;5082945;28;20777;-81
2023/12/11 05:25:44;;;;;;;39.30;9.57;;;2.60;99.90;;;;;;5070102;28;20479;-82
2023/12/11 05:28:11;;;;;;;5.40;2.93;;;2.60;99.90;;;;;;5073887;28;20466;-82
2023/12/11 05:30:39;;;;;;;5.40;2.40;;;2.70;99.90;;;;;;5074500;28;20470;-82
2023/12/11 05:33:06;;;;;;;1.00;0.73;;;2.90;99.90;;;;;;5075758;28;20462;-82
2023/12/11 05:35:34;;;;;;;1.33;0.40;;;3.50;99.90;;;;;;5074013;28;20475;-82
2023/12/11 05:38:01;;;;;;;0.50;0.50;;;4.10;99.90;;;;;;5072351;28;20460;-82
2023/12/11 05:40:28;;;;;;;1.50;0.70;;;4.40;99.90;;;;;;5077446;28;20455;-82
2023/12/11 05:42:55;;;;;;;1.03;0.53;;;4.50;99.90;;;;;;5064486;28;20460;-81
2023/12/11 05:45:22;;;;;;;0.50;0.50;;;4.80;99.90;;;;;;5071928;28;20520;-82
2023/12/11 05:47:49;;;;;;;0.50;0.40;;;4.90;99.90;;;;;;5073531;28;20462;-82
2023/12/11 05:50:16;;;;;;;1.43;1.27;;;5.00;99.90;;;;;;5072205;28;20498;-82
2023/12/11 05:52:45;;;;;;;0.50;0.40;;;5.10;99.90;;;;;;5072921;28;20463;-81
2023/12/11 05:55:12;;;;;;;0.47;0.30;;;5.10;99.90;;;;;;5075467;28;20518;-82
2023/12/11 05:57:39;;;;;;;0.40;0.30;;;5.10;99.90;;;;;;5080572;28;20436;-82
2023/12/11 06:00:07;;;;;;;2.80;0.40;;;5.20;99.90;;;;;;5065293;28;21041;-82
2023/12/11 06:02:34;;;;;;;0.60;0.30;;;5.20;99.90;;;;;;5068016;28;20479;-82
2023/12/11 06:05:02;;;;;;;0.60;0.27;;;5.30;99.90;;;;;;5071467;28;20460;-82
2023/12/11 06:07:29;;;;;;;0.30;0.20;;;5.30;99.90;;;;;;5077969;28;20938;-82
2023/12/11 06:09:57;;;;;;;0.40;0.30;;;5.30;99.90;;;;;;5070887;28;20510;-82
2023/12/11 06:12:24;;;;;;;0.57;0.30;;;5.30;99.90;;;;;;5071966;28;20820;-82
2023/12/11 06:14:51;;;;;;;0.50;0.20;;;5.40;99.90;;;;;;5068670;28;20463;-82
2023/12/11 06:17:19;;;;;;;0.40;0.20;;;5.30;99.90;;;;;;5080500;28;20541;-82
2023/12/11 06:19:47;;;;;;;0.60;0.40;;;5.30;99.90;;;;;;5074979;28;20506;-82
2023/12/11 06:22:14;;;;;;;0.40;0.20;;;5.20;99.90;;;;;;5071925;28;21004;-82
2023/12/11 06:24:41;;;;;;;0.40;0.30;;;5.10;99.90;;;;;;5074560;28;20459;-82
2023/12/11 06:27:10;;;;;;;0.30;0.20;;;5.20;99.90;;;;;;5076548;28;20469;-82
2023/12/11 06:29:39;;;;;;;0.37;0.23;;;5.20;99.90;;;;;;5070087;28;20739;-82
2023/12/11 06:32:08;;;;;;;0.40;0.20;;;5.10;99.90;;;;;;5065043;28;20815;-82
2023/12/11 06:34:35;;;;;;;0.40;0.20;;;5.10;99.90;;;;;;5072967;28;20456;-82
2023/12/11 06:37:02;;;;;;;0.30;0.20;;;5.10;99.90;;;;;;5072879;28;20464;-82
2023/12/11 06:39:29;;;;;;;0.37;0.20;;;5.00;99.90;;;;;;5068843;28;20455;-82
2023/12/11 06:41:56;;;;;;;0.40;0.20;;;5.00;99.90;;;;;;5065911;28;20460;-82
2023/12/11 06:44:25;;;;;;;0.40;0.23;;;5.00;99.90;;;;;;5070992;28;20497;-82
2023/12/11 06:46:52;;;;;;;0.60;0.20;;;5.10;99.90;;;;;;5066997;28;20438;-82
2023/12/11 06:49:19;;;;;;;0.60;0.30;;;5.20;99.90;;;;;;5069926;28;20499;-83
2023/12/11 06:51:46;;;;;;;0.50;0.20;;;5.20;99.90;;;;;;5069600;28;20468;-82
2023/12/11 06:54:14;;;;;;;1.23;0.50;;;5.10;99.90;;;;;;5070170;28;20440;-82
2023/12/11 06:56:41;;;;;;;0.30;0.20;;;5.20;99.90;;;;;;5070820;28;20487;-82
2023/12/11 06:59:08;;;;;;;0.73;0.20;;;5.20;99.90;;;;;;5070689;28;20473;-82
2023/12/11 07:01:37;;;;;;;0.73;0.30;;;5.20;99.90;;;;;;5077543;28;20896;-82
2023/12/11 07:04:05;;;;;;;0.50;0.30;;;5.10;99.90;;;;;;5063980;28;20472;-82
2023/12/11 07:06:32;;;;;;;0.40;0.20;;;5.10;99.90;;;;;;5066132;28;20467;-82
2023/12/11 07:08:59;;;;;;;1.13;0.40;;;5.10;99.90;;;;;;5077305;28;20482;-81
2023/12/11 07:11:26;;;;;;;0.40;0.20;;;5.10;99.90;;;;;;5069231;28;20452;-82
2023/12/11 07:13:54;;;;;;;0.30;0.20;;;5.20;99.90;;;;;;5076939;28;20466;-82
2023/12/11 07:16:23;;;;;;;0.40;0.30;;;5.20;99.90;;;;;;5085239;28;20462;-83
2023/12/11 07:18:52;;;;;;;0.50;0.40;;;5.30;99.90;;;;;;5077500;28;20451;-82
2023/12/11 07:21:19;;;;;;;0.70;0.40;;;5.30;99.90;;;;;;5069856;28;20470;-81
2023/12/11 07:23:48;;;;;;;0.50;0.30;;;5.40;99.90;;;;;;5069990;28;20462;-83
2023/12/11 07:26:15;;;;;;;0.40;0.30;;;5.50;99.90;;;;;;5073008;28;20451;-81
2023/12/11 07:28:42;;;;;;;0.40;0.30;;;5.50;99.90;;;;;;5068656;28;20468;-81
2023/12/11 07:31:09;;;;;;;0.40;0.30;;;5.50;99.90;;;;;;5075868;28;20491;-83
2023/12/11 07:33:37;;;;;;;0.40;0.30;;;5.60;99.90;;;;;;5091152;28;20810;-82
2023/12/11 07:36:06;;;;;;;0.40;0.30;;;5.70;99.90;;;;;;5064782;28;20499;-81
2023/12/11 07:38:33;;;;;;;0.50;0.30;;;5.70;99.90;;;;;;5070114;28;21094;-81
2023/12/11 07:41:00;;;;;;;0.40;0.30;;;5.70;99.90;;;;;;5068985;28;20456;-82
2023/12/11 07:43:27;;;;;;;0.40;0.20;;;5.80;99.90;;;;;;5083105;28;20470;-83
2023/12/11 07:45:54;;;;;;;0.60;0.30;;;5.70;99.90;;;;;;5076971;28;20470;-83
2023/12/11 07:48:21;;;;;;;0.60;0.20;;;5.70;99.90;;;;;;5069490;28;20450;-82
2023/12/11 07:50:48;;;;;;;0.40;0.30;;;5.70;99.90;;;;;;5081299;28;20493;-83
2023/12/11 07:53:17;;;;;;;0.40;0.20;;;5.70;99.90;;;;;;5066042;28;20478;-83
2023/12/11 07:55:45;;;;;;;0.50;0.40;;;5.70;99.90;;;;;;5066027;28;20528;-83
2023/12/11 07:58:13;;;;;;;0.60;0.40;;;5.70;99.90;;;;;;5076903;28;20951;-83
2023/12/11 08:00:40;;;;;;;0.60;0.40;;;5.70;99.90;;;;;;5073850;28;20486;-83
2023/12/11 08:03:07;;;;;;;0.63;0.37;;;5.70;99.90;;;;;;5085972;28;20853;-83
2023/12/11 08:05:34;;;;;;;0.67;0.60;;;5.70;99.90;;;;;;5068730;28;20975;-83
2023/12/11 08:08:01;;;;;;;0.40;0.30;;;5.80;99.90;;;;;;5073682;28;20965;-83
2023/12/11 08:10:30;;;;;;;0.40;0.30;;;5.70;99.90;;;;;;5072553;28;20520;-83
2023/12/11 08:12:57;;;;;;;5.60;4.93;;;5.70;99.90;;;;;;5078653;28;20459;-82
2023/12/11 08:15:24;;;;;;;5.80;4.70;;;5.00;99.90;;;;;;5083092;28;20467;-82
2023/12/11 08:17:52;;;;;;;6.43;4.90;;;4.40;99.90;;;;;;5075880;28;20430;-82
2023/12/11 08:20:20;;;;;;;6.33;4.63;;;4.10;99.90;;;;;;5083663;28;20447;-82
2023/12/11 08:22:47;;;;;;;4.63;3.93;;;4.00;99.90;;;;;;5075897;28;20439;-83
2023/12/11 08:25:15;;;;;;;7.30;3.80;;;3.80;99.90;;;;;;5084501;28;21033;-82
2023/12/11 08:27:43;;;;;;;3.70;2.47;;;3.80;99.90;;;;;;5071449;28;20443;-82
2023/12/11 08:30:11;;;;;;;3.50;3.10;;;3.90;99.90;;;;;;5073811;28;20475;-84
2023/12/11 08:32:39;;;;;;;2.90;1.97;;;4.10;99.90;;;;;;5079099;28;20451;-82
2023/12/11 08:35:07;;;;;;;3.40;3.10;;;4.40;99.90;;;;;;5073525;28;20519;-82
2023/12/11 08:37:34;;;;;;;3.47;3.17;;;4.60;99.90;;;;;;5070923;28;20443;-82
2023/12/11 08:40:03;;;;;;;3.93;3.00;;;4.70;99.90;;;;;;5075812;28;20450;-81
2023/12/11 08:42:32;;;;;;;5.80;3.70;;;4.40;99.90;;;;;;5071756;28;20550;-81
2023/12/11 08:45:00;;;;;;;6.90;4.97;;;4.50;99.90;;;;;;5071282;28;20463;-82
2023/12/11 08:47:27;;;;;;;5.23;4.80;;;4.60;99.90;;;;;;5078576;28;20504;-82
2023/12/11 08:49:55;;;;;;;4.40;3.80;;;4.70;99.90;;;;;;5067467;28;20491;-82
2023/12/11 08:52:22;;;;;;;4.67;3.27;;;4.80;99.90;;;;;;5071332;28;20452;-82
2023/12/11 08:54:50;;;;;;;2.63;2.40;;;4.80;99.90;;;;;;5068820;28;20508;-82
2023/12/11 08:57:17;;;;;;;3.83;3.17;;;4.90;99.90;;;;;;5079244;28;20459;-82
2023/12/11 08:59:44;;;;;;;6.63;6.03;;;5.00;99.90;;;;;;5072187;28;20784;-82
2023/12/11 09:02:13;;;;;;;6.13;5.53;;;5.20;99.90;;;;;;5072812;28;20473;-82
2023/12/11 09:04:40;;;;;;;33.23;29.37;;;5.20;99.90;;;;;;5073936;28;20470;-82
2023/12/11 09:07:09;;;;;;;17.33;13.30;;;5.40;99.90;;;;;;5066546;28;20448;-82
2023/12/11 09:09:37;;;;;;;10.60;7.53;;;5.60;99.90;;;;;;5075740;28;20477;-83
2023/12/11 09:12:05;;;;;;;13.20;10.00;;;5.80;99.90;;;;;;5072274;28;20517;-83
2023/12/11 09:14:33;;;;;;;12.20;9.93;;;6.00;99.90;;;;;;5083644;28;20445;-82
2023/12/11 09:17:00;;;;;;;10.47;9.37;;;6.20;99.90;;;;;;5085460;28;20906;-82
2023/12/11 09:19:29;;;;;;;12.47;10.20;;;6.20;99.90;;;;;;5080528;28;20477;-83
2023/12/11 09:21:56;;;;;;;9.20;8.30;;;6.50;99.90;;;;;;5079959;28;20477;-82
2023/12/11 09:24:23;;;;;;;24.80;22.10;;;6.70;99.90;;;;;;5071460;28;20787;-82
2023/12/11 09:26:50;;;;;;;6.47;5.60;;;6.70;99.90;;;;;;5070745;28;20814;-82
2023/12/11 09:29:17;;;;;;;7.17;4.87;;;6.30;99.90;;;;;;5070416;28;20459;-81
2023/12/11 09:31:45;;;;;;;8.77;7.37;;;6.10;99.90;;;;;;5077205;28;20487;-82
2023/12/11 09:34:12;;;;;;;6.53;6.03;;;5.90;99.90;;;;;;5077965;28;20475;-82
2023/12/11 09:36:40;;;;;;;4.10;3.50;;;5.90;99.90;;;;;;5071893;28;20555;-84
2023/12/11 09:39:08;;;;;;;5.73;5.23;;;6.10;99.90;;;;;;5074603;28;20459;-82
2023/12/11 09:41:35;;;;;;;6.93;6.10;;;6.20;99.90;;;;;;5084452;28;20534;-82
2023/12/11 09:44:03;;;;;;;6.53;4.20;;;6.10;99.90;;;;;;5072489;28;20461;-83
2023/12/11 09:46:36;;;;;;;9.50;6.90;;;6.10;99.90;;;;;;5073576;28;20951;-83
2023/12/11 09:49:03;;;;;;;5.23;4.60;;;6.10;99.90;;;;;;5076438;28;20458;-83
2023/12/11 09:51:31;;;;;;;3.83;3.43;;;5.90;99.90;;;;;;5078154;28;20580;-83
2023/12/11 09:54:02;;;;;;;6.27;4.23;;;6.00;99.90;;;;;;5075735;28;20463;-82
2023/12/11 09:56:31;;;;;;;5.93;4.03;;;5.80;99.90;;;;;;5066735;28;20475;-81
2023/12/11 09:58:59;;;;;;;5.07;4.17;;;5.90;99.90;;;;;;5070303;28;20464;-82
2023/12/11 10:01:27;;;;;;;4.10;3.80;;;6.10;99.90;;;;;;5077109;28;20444;-82
2023/12/11 10:03:54;;;;;;;7.77;7.07;;;6.20;99.90;;;;;;5078367;28;20470;-82
2023/12/11 10:06:21;;;;;;;5.83;4.93;;;6.20;99.90;;;;;;5067974;28;20443;-82
2023/12/11 10:08:52;;;;;;;8.00;5.70;;;6.60;99.90;;;;;;5078688;28;20788;-82
2023/12/11 10:11:22;;;;;;;7.70;5.73;;;6.90;99.90;;;;;;5072763;28;21298;-82
2023/12/11 10:13:50;;;;;;;4.20;3.90;;;6.90;99.90;;;;;;5069045;28;20459;-82
2023/12/11 10:16:30;;;;;;;6.10;4.97;;;6.80;99.90;;;;;;5065286;28;20452;-82
2023/12/11 10:18:58;;;;;;;5.33;3.20;;;6.50;99.90;;;;;;5079852;28;20442;-81
2023/12/11 10:21:25;;;;;;;5.07;3.80;;;6.40;99.90;;;;;;5067914;28;20770;-81
2023/12/11 10:24:03;;;;;;;3.90;3.00;;;6.50;99.90;;;;;;5067473;28;20463;-81
2023/12/11 10:26:33;;;;;;;4.00;3.60;;;6.40;99.90;;;;;;5066546;28;20475;-81
2023/12/11 10:29:18;;;;;;;3.10;2.80;;;6.10;99.90;;;;;;5066623;28;20444;-81
2023/12/11 10:31:45;;;;;;;6.93;4.90;;;5.90;99.90;;;;;;5066986;28;20496;-81
2023/12/11 10:34:13;;;;;;;8.67;4.70;;;5.70;99.90;;;;;;5063634;28;20467;-82
2023/12/11 10:36:49;;;;;;;2.77;2.40;;;5.70;99.90;;;;;;5072775;28;20781;-82
2023/12/11 10:39:16;;;;;;;10.13;5.00;;;5.80;99.90;;;;;;5077232;28;20450;-82
2023/12/11 10:41:46;;;;;;;3.27;3.07;;;6.00;99.90;;;;;;5075161;28;20920;-82
2023/12/11 10:44:25;;;;;;;5.60;4.70;;;6.20;99.90;;;;;;5073430;28;20472;-82
2023/12/11 10:46:54;;;;;;;9.37;6.00;;;6.10;99.90;;;;;;5074912;28;20448;-82
2023/12/11 10:49:22;;;;;;;13.30;8.53;;;6.10;99.90;;;;;;5082077;28;20452;-83
2023/12/11 10:51:49;;;;;;;7.40;5.17;;;6.30;99.90;;;;;;5067763;28;20484;-83
2023/12/11 10:54:17;;;;;;;10.30;7.30;;;6.00;99.90;;;;;;5077363;28;20843;-83
2023/12/11 10:56:48;;;;;;;10.93;8.10;;;5.80;99.90;;;;;;5075300;28;20463;-83
2023/12/11 10:59:16;;;;;;;7.53;6.27;;;5.90;99.90;;;;;;5081381;28;20483;-83
2023/12/11 11:01:46;;;;;;;7.20;5.83;;;5.90;99.90;;;;;;5078993;28;20506;-82
2023/12/11 11:04:14;;;;;;;7.87;7.03;;;5.90;99.90;;;;;;5075577;28;20497;-82
2023/12/11 11:06:49;;;;;;;10.70;5.90;;;5.70;99.90;;;;;;5077375;28;20936;-83
2023/12/11 11:09:24;;;;;;;7.13;5.70;;;5.60;99.90;;;;;;5082692;28;20456;-82
2023/12/11 11:11:59;;;;;;;7.70;5.03;;;5.70;99.90;;;;;;5070552;28;21016;-82
2023/12/11 11:14:43;;;;;;;6.40;5.80;;;5.80;99.90;;;;;;5074095;28;20516;-82
2023/12/11 11:17:11;;;;;;;10.13;7.40;;;5.80;99.90;;;;;;5070026;28;20438;-82
2023/12/11 11:19:43;;;;;;;6.93;6.33;;;5.70;99.90;;;;;;5081252;28;20478;-82
2023/12/11 11:22:22;;;;;;;11.80;6.40;;;5.90;99.90;;;;;;5069053;28;20545;-83
2023/12/11 11:24:49;;;;;;;8.90;7.67;;;6.00;99.90;;;;;;5075237;28;20443;-83
2023/12/11 11:27:42;;;;;;;8.57;7.67;;;5.90;99.90;;;;;;5076865;28;20500;-83
2023/12/11 11:30:10;;;;;;;9.70;5.80;;;5.90;99.90;;;;;;5063941;28;20444;-82
2023/12/11 11:32:54;;;;;;;6.63;5.47;;;5.90;99.90;;;;;;5066235;28;20472;-83
2023/12/11 11:35:59;;;;;;;2.50;2.30;;;6.00;99.90;;;;;;5063604;28;20457;-82
2023/12/11 11:38:56;;;;;;;2.53;2.13;;;6.00;99.90;;;;;;5074322;28;20465;-82
2023/12/11 11:41:24;;;;;;;3.60;2.17;;;6.30;99.90;;;;;;5073395;28;20455;-83
2023/12/11 11:44:07;;;;;;;2.67;1.90;;;6.40;99.90;;;;;;5077575;28;20466;-83
2023/12/11 11:47:00;;;;;;;1.90;1.80;;;6.50;99.90;;;;;;5079796;28;20514;-82
2023/12/11 11:49:28;;;;;;;1.80;1.37;;;6.60;99.90;;;;;;5072817;28;20942;-84
2023/12/11 11:51:55;;;;;;;4.33;3.77;;;6.60;99.90;;;;;;5075170;28;20483;-82
2023/12/11 11:54:24;;;;;;;6.33;5.60;;;6.70;99.90;;;;;;5070226;28;20451;-82
2023/12/11 11:56:51;;;;;;;5.57;5.07;;;6.50;99.90;;;;;;5068617;28;20475;-81
2023/12/11 11:59:20;;;;;;;6.07;3.07;;;6.40;99.90;;;;;;5070914;28;20924;-82
2023/12/11 12:01:54;;;;;;;3.73;2.70;;;6.50;99.90;;;;;;5067801;28;20450;-83
2023/12/11 12:04:27;;;;;;;1.70;1.23;;;6.60;99.90;;;;;;5068203;28;20464;-84
2023/12/11 12:06:56;;;;;;;2.00;0.90;;;6.70;99.90;;;;;;5068956;28;20440;-82
2023/12/11 12:09:24;;;;;;;3.63;1.50;;;6.80;99.90;;;;;;5074445;28;20490;-82
2023/12/11 12:11:51;;;;;;;6.13;3.90;;;7.10;99.90;;;;;;5075379;28;20616;-82
2023/12/11 12:14:19;;;;;;;5.70;5.10;;;7.00;99.90;;;;;;5075949;28;20443;-83
2023/12/11 12:16:46;;;;;;;4.07;3.67;;;7.10;99.90;;;;;;5066930;28;20448;-83
2023/12/11 12:19:15;;;;;;;1.90;1.80;;;7.00;99.90;;;;;;5075194;28;20955;-82
2023/12/11 12:21:54;;;;;;;1.10;1.00;;;7.00;99.90;;;;;;5067108;28;21263;-82
2023/12/11 12:24:21;;;;;;;1.43;1.10;;;7.00;99.90;;;;;;5093957;28;20465;-82
2023/12/11 12:26:54;;;;;;;1.23;0.60;;;7.00;99.90;;;;;;5077212;28;20940;-82
2023/12/11 12:29:22;;;;;;;0.50;0.40;;;7.00;99.90;;;;;;5079011;28;20546;-83
2023/12/11 12:31:49;;;;;;;2.50;1.60;;;7.10;99.90;;;;;;5072436;28;20491;-84
2023/12/11 12:34:18;;;;;;;3.93;2.43;;;6.80;99.90;;;;;;5078464;28;20454;-83
2023/12/11 12:36:45;;;;;;;1.10;1.00;;;6.60;99.90;;;;;;5077513;28;20505;-84
2023/12/11 12:39:13;;;;;;;1.67;1.23;;;6.70;99.90;;;;;;5077952;28;20498;-84
2023/12/11 12:41:40;;;;;;;1.70;0.83;;;6.70;99.90;;;;;;5080597;28;20955;-84
2023/12/11 12:44:07;;;;;;;1.03;0.90;;;6.80;99.90;;;;;;5077666;28;20516;-84
2023/12/11 12:46:43;;;;;;;1.33;1.23;;;6.90;99.90;;;;;;5066948;28;20441;-84
2023/12/11 12:49:11;;;;;;;1.10;1.00;;;6.80;99.90;;;;;;5069441;28;20509;-84
2023/12/11 12:51:45;;;;;;;3.50;1.97;;;6.80;99.90;;;;;;5074082;28;20497;-85
2023/12/11 12:54:12;;;;;;;2.67;0.67;;;6.80;99.90;;;;;;5068845;28;20456;-85
2023/12/11 12:56:40;;;;;;;0.50;0.50;;;6.90;99.90;;;;;;5070086;28;20761;-85
2023/12/11 12:59:08;;;;;;;1.47;0.50;;;7.00;99.90;;;;;;5072461;28;20896;-84
2023/12/11 13:01:37;;;;;;;1.23;0.60;;;7.00;99.90;;;;;;5067317;28;20460;-85